KVOK/VOK METAR and TAF weather

Enter ICAO airport designator
Station Type Date Time Source
KVOK METAR 2021/02/25 16:56 UTC NOAA

KVOK 251656Z 29010KT 10SM FEW040 02/M03 A3029 RMK AO2A SLPNO


Station Type Date Time Source
KVOK Decoded METAR 2021/02/25 16:56 UTC NOAA

Volk / Camp Douglas, WI, United States (KVOK) 43-56N 090-16W
Feb 25, 2021 - 11:56 AM EST / 2021.02.25 1656 UTC
Wind: from the WNW (290 degrees) at 12 MPH (10 KT):0
Visibility: 10 mile(s):0
Sky conditions: mostly clear
Temperature: 35 F (2 C)
Windchill: 26 F (-3 C):1
Dew Point: 26 F (-3 C)
Relative Humidity: 69%
Pressure (altimeter): 30.29 in. Hg (1025 hPa)
ob: KVOK 251656Z 29010KT 10SM FEW040 02/M03 A3029 RMK AO2A SLPNO
cycle: 17

Station Type Date Time Source
KVOK TAF 2021/02/25 17:06 UTC NOAA

TAF KVOK 251700Z 2517/2623 30012KT 9999 SCT015 QNH3007INS
BECMG 2602/2603 28009KT 9999 SCT015 QNH3012INS
BECMG 2614/2615 29012KT 9999 SCT005 510023 QNH3007INS
BECMG 2616/2617 20012G22KT 9999 BKN009 510023 QNH3005INS
BECMG 2617/2618 21012G22KT 9999 SCT016 510023 QNH2998INS
BECMG 2619/2620 19015G25KT 9999 FEW050 SCT100 510013 QNH2981INS TX03/2520Z TNM07/2614Z

Example: see airport list